Rechercher aéroport 
image banner adimage banner adimage banner ad
image banner ad

0O9 - Ward Field

Situé à Gasquet, United States

ICAO - 0O9, IATA -

Données fournies par Airmate  

Information générale

Coordonnées: N41°50'44" W123°59'5"
Élévation : 356 feet MSL.
Variation magnétique : 18° East
Voir autres Aéroports à California

Données opérationnelles

Special qualification required
Heure actuelle UTC:
Heure actuelle locale:
Météo à : KCEC - Jack Mc Namara Field ( 22 km )
METAR: KCEC 251221Z AUTO 00000KT 1SM BR OVC002 12/12 A2997 RMK AO2 T01220117
TAF: KCEC 251128Z 2512/2612 15004KT 1 1/2SM BR OVC002 FM251700 20005KT 6SM BR BKN004 FM251900 20008KT P6SM FEW005 FM260500 17010KT 4SM BR BKN004
Voir NOTAMs / SUP AIP / TFR affectant cet aéroport [VIEW]
Fréquences de communication: [VIEW]

Pistes:

Identifiant RWYQFULongueur (ft)Largeur (ft)SurfaceLDA (ft)
06299050ASPH
24299050ASPH

Coordonnées de l'aéroport

Adresse: Gasquet United States

Vue satellite de 0O9